This is the latest recevied weather packets stored in our database for station/object SP9EPI-13. If no packets are shown the sender has not sent any weather packets the latest 1 day(s).
| Time | Temp. | Humidity | Pressure | Rain* | Wind** | Luminosity | Snow |
|---|---|---|---|---|---|---|---|
| 1778107201 | 12.78° C | 99% | 1003 hPa | - | - | - | - |
| 1778104801 | 13.89° C | 98% | 1003 hPa | - | - | - | - |
| 1778103601 | 15° C | 97% | 1003 hPa | - | - | - | - |
| 1778099401 | 17.22° C | 71% | 1003 hPa | - | - | - | - |
| 1778098801 | 16.11° C | 71% | 1003 hPa | - | - | - | - |
| 1778098201 | 16.11° C | 75% | 1003 hPa | - | - | - | - |
| 1778091001 | 18.89° C | 58% | 1002.3 hPa | - | - | - | - |
| 1778090401 | 20° C | 55% | 1002.3 hPa | - | - | - | - |
| 1778089801 | 20° C | 54% | 1002.3 hPa | - | - | - | - |
| 1778084412 | 22.78° C | 44% | 1001.3 hPa | - | - | - | - |
| 1778083801 | 23.89° C | 43% | 1001.3 hPa | - | - | - | - |
| 1778080201 | 27.78° C | 32% | 1002 hPa | - | - | - | - |
| 1778078401 | 27.78° C | 32% | 1002 hPa | - | - | - | - |
| 1778077801 | 27.78° C | 37% | 1002 hPa | - | - | - | - |
| 1778077201 | 27.78° C | 33% | 1002.3 hPa | - | - | - | - |
| 1778076601 | 27.22° C | 35% | 1002.3 hPa | - | - | - | - |
| 1778075401 | 27.22° C | 34% | 1002.3 hPa | - | - | - | - |
| 1778074801 | 27.22° C | 35% | 1002.3 hPa | - | - | - | - |
| 1778074201 | 26.11° C | 38% | 1002.3 hPa | - | - | - | - |
| 1778073601 | 26.11° C | 37% | 1002.3 hPa | - | - | - | - |
| 1778073001 | 27.22° C | 33% | 1002.3 hPa | - | - | - | - |
| 1778071201 | 26.11° C | 37% | 1002.7 hPa | - | - | - | - |
| 1778070601 | 27.22° C | 34% | 1002.7 hPa | - | - | - | - |
| 1778069401 | 26.11° C | 37% | 1002.7 hPa | - | - | - | - |
| 1778068201 | 26.11° C | 38% | 1003 hPa | - | - | - | - |
* Rain since midnight (hover to see other rain measurements)
** Current wind speed in m/s (hover to see current wind gust speed)